sensor_id;sensor_type;location;lat;lon;timestamp;P1;durP1;ratioP1;P2;durP2;ratioP2
8413;SDS011;4244;48.684;9.028;2023-04-28T00:01:06;4.50;;;4.10;;
8413;SDS011;4244;48.684;9.028;2023-04-28T00:03:32;4.27;;;3.33;;
8413;SDS011;4244;48.684;9.028;2023-04-28T00:05:57;4.50;;;3.83;;
8413;SDS011;4244;48.684;9.028;2023-04-28T00:08:23;3.83;;;3.40;;
8413;SDS011;4244;48.684;9.028;2023-04-28T00:10:51;4.00;;;3.70;;
8413;SDS011;4244;48.684;9.028;2023-04-28T00:13:17;4.27;;;3.87;;
8413;SDS011;4244;48.684;9.028;2023-04-28T00:15:43;4.83;;;3.67;;
8413;SDS011;4244;48.684;9.028;2023-04-28T00:18:08;4.90;;;4.50;;
8413;SDS011;4244;48.684;9.028;2023-04-28T00:20:34;5.33;;;4.40;;
8413;SDS011;4244;48.684;9.028;2023-04-28T00:23:00;4.87;;;3.97;;
8413;SDS011;4244;48.684;9.028;2023-04-28T00:25:26;4.93;;;4.53;;
8413;SDS011;4244;48.684;9.028;2023-04-28T00:27:51;5.37;;;4.03;;
8413;SDS011;4244;48.684;9.028;2023-04-28T00:30:17;4.43;;;4.03;;
8413;SDS011;4244;48.684;9.028;2023-04-28T00:32:43;6.43;;;4.00;;
8413;SDS011;4244;48.684;9.028;2023-04-28T00:35:09;5.23;;;4.70;;
8413;SDS011;4244;48.684;9.028;2023-04-28T00:37:35;4.03;;;3.73;;
8413;SDS011;4244;48.684;9.028;2023-04-28T00:40:01;4.87;;;4.33;;
8413;SDS011;4244;48.684;9.028;2023-04-28T00:42:27;4.87;;;4.37;;
8413;SDS011;4244;48.684;9.028;2023-04-28T00:44:52;6.83;;;4.60;;
8413;SDS011;4244;48.684;9.028;2023-04-28T00:47:18;6.13;;;5.10;;
8413;SDS011;4244;48.684;9.028;2023-04-28T00:49:44;6.03;;;4.90;;
8413;SDS011;4244;48.684;9.028;2023-04-28T00:52:10;5.13;;;4.70;;
8413;SDS011;4244;48.684;9.028;2023-04-28T00:54:35;6.07;;;4.60;;
8413;SDS011;4244;48.684;9.028;2023-04-28T00:57:02;5.10;;;4.40;;
8413;SDS011;4244;48.684;9.028;2023-04-28T00:59:28;5.20;;;4.60;;
8413;SDS011;4244;48.684;9.028;2023-04-28T01:01:55;4.33;;;3.93;;
8413;SDS011;4244;48.684;9.028;2023-04-28T01:04:20;4.03;;;3.63;;
8413;SDS011;4244;48.684;9.028;2023-04-28T01:06:48;5.07;;;4.60;;
8413;SDS011;4244;48.684;9.028;2023-04-28T01:09:13;5.17;;;4.67;;
8413;SDS011;4244;48.684;9.028;2023-04-28T01:11:39;5.50;;;5.00;;
8413;SDS011;4244;48.684;9.028;2023-04-28T01:14:05;4.60;;;4.10;;
8413;SDS011;4244;48.684;9.028;2023-04-28T01:16:31;5.90;;;4.60;;
8413;SDS011;4244;48.684;9.028;2023-04-28T01:18:57;5.30;;;4.80;;
8413;SDS011;4244;48.684;9.028;2023-04-28T01:21:29;6.30;;;4.57;;
8413;SDS011;4244;48.684;9.028;2023-04-28T01:23:56;5.07;;;4.53;;
8413;SDS011;4244;48.684;9.028;2023-04-28T01:26:22;4.60;;;4.20;;
8413;SDS011;4244;48.684;9.028;2023-04-28T01:28:48;4.80;;;4.37;;
8413;SDS011;4244;48.684;9.028;2023-04-28T01:31:14;5.00;;;4.50;;
8413;SDS011;4244;48.684;9.028;2023-04-28T01:33:40;4.80;;;4.30;;
8413;SDS011;4244;48.684;9.028;2023-04-28T01:36:06;5.70;;;4.67;;
8413;SDS011;4244;48.684;9.028;2023-04-28T01:38:32;5.13;;;4.03;;
8413;SDS011;4244;48.684;9.028;2023-04-28T01:40:58;5.20;;;4.37;;
8413;SDS011;4244;48.684;9.028;2023-04-28T01:43:23;5.57;;;4.17;;
8413;SDS011;4244;48.684;9.028;2023-04-28T01:45:49;3.93;;;3.50;;
8413;SDS011;4244;48.684;9.028;2023-04-28T01:48:15;4.30;;;3.90;;
8413;SDS011;4244;48.684;9.028;2023-04-28T01:50:41;5.30;;;3.80;;
8413;SDS011;4244;48.684;9.028;2023-04-28T01:53:06;7.50;;;4.10;;
8413;SDS011;4244;48.684;9.028;2023-04-28T01:55:32;5.20;;;3.90;;
8413;SDS011;4244;48.684;9.028;2023-04-28T01:57:58;5.17;;;4.70;;
8413;SDS011;4244;48.684;9.028;2023-04-28T02:00:23;4.73;;;4.27;;
8413;SDS011;4244;48.684;9.028;2023-04-28T02:02:49;4.20;;;3.80;;
8413;SDS011;4244;48.684;9.028;2023-04-28T02:05:15;6.80;;;4.03;;
8413;SDS011;4244;48.684;9.028;2023-04-28T02:07:41;3.90;;;3.50;;
8413;SDS011;4244;48.684;9.028;2023-04-28T02:10:07;4.30;;;3.90;;
8413;SDS011;4244;48.684;9.028;2023-04-28T02:12:33;4.50;;;4.10;;
8413;SDS011;4244;48.684;9.028;2023-04-28T02:14:58;4.10;;;3.70;;
8413;SDS011;4244;48.684;9.028;2023-04-28T02:17:25;3.83;;;3.43;;
8413;SDS011;4244;48.684;9.028;2023-04-28T02:19:54;4.40;;;4.00;;
8413;SDS011;4244;48.684;9.028;2023-04-28T02:22:23;5.00;;;4.53;;
8413;SDS011;4244;48.684;9.028;2023-04-28T02:24:49;4.33;;;3.93;;
8413;SDS011;4244;48.684;9.028;2023-04-28T02:27:15;4.63;;;3.77;;
8413;SDS011;4244;48.684;9.028;2023-04-28T02:29:41;6.47;;;4.40;;
8413;SDS011;4244;48.684;9.028;2023-04-28T02:32:07;4.27;;;3.87;;
8413;SDS011;4244;48.684;9.028;2023-04-28T02:34:33;4.70;;;4.00;;
8413;SDS011;4244;48.684;9.028;2023-04-28T02:36:59;4.97;;;4.57;;
8413;SDS011;4244;48.684;9.028;2023-04-28T02:39:25;4.50;;;4.10;;
8413;SDS011;4244;48.684;9.028;2023-04-28T02:41:52;3.87;;;3.57;;
8413;SDS011;4244;48.684;9.028;2023-04-28T02:44:18;4.70;;;4.20;;
8413;SDS011;4244;48.684;9.028;2023-04-28T02:46:44;4.57;;;4.10;;
8413;SDS011;4244;48.684;9.028;2023-04-28T02:49:10;4.87;;;4.47;;
8413;SDS011;4244;48.684;9.028;2023-04-28T02:51:36;4.90;;;4.50;;
8413;SDS011;4244;48.684;9.028;2023-04-28T02:54:01;5.33;;;4.63;;
8413;SDS011;4244;48.684;9.028;2023-04-28T02:56:27;5.23;;;4.10;;
8413;SDS011;4244;48.684;9.028;2023-04-28T02:58:54;4.93;;;4.43;;
8413;SDS011;4244;48.684;9.028;2023-04-28T03:01:19;4.27;;;3.47;;
8413;SDS011;4244;48.684;9.028;2023-04-28T03:03:45;4.93;;;4.10;;
8413;SDS011;4244;48.684;9.028;2023-04-28T03:06:11;4.57;;;4.17;;
8413;SDS011;4244;48.684;9.028;2023-04-28T03:08:36;3.87;;;3.57;;
8413;SDS011;4244;48.684;9.028;2023-04-28T03:11:02;4.93;;;4.43;;
8413;SDS011;4244;48.684;9.028;2023-04-28T03:13:28;5.07;;;4.57;;
8413;SDS011;4244;48.684;9.028;2023-04-28T03:15:54;6.63;;;4.23;;
8413;SDS011;4244;48.684;9.028;2023-04-28T03:18:20;5.47;;;4.30;;
8413;SDS011;4244;48.684;9.028;2023-04-28T03:20:47;4.17;;;3.87;;
8413;SDS011;4244;48.684;9.028;2023-04-28T03:23:13;7.30;;;4.83;;
8413;SDS011;4244;48.684;9.028;2023-04-28T03:25:39;4.57;;;4.13;;
8413;SDS011;4244;48.684;9.028;2023-04-28T03:28:05;5.80;;;4.50;;
8413;SDS011;4244;48.684;9.028;2023-04-28T03:30:31;4.80;;;4.13;;
8413;SDS011;4244;48.684;9.028;2023-04-28T03:32:56;5.20;;;4.00;;
8413;SDS011;4244;48.684;9.028;2023-04-28T03:35:22;5.63;;;5.17;;
8413;SDS011;4244;48.684;9.028;2023-04-28T03:37:48;4.93;;;4.47;;
8413;SDS011;4244;48.684;9.028;2023-04-28T03:40:14;5.10;;;4.60;;
8413;SDS011;4244;48.684;9.028;2023-04-28T03:42:40;9.70;;;4.40;;
8413;SDS011;4244;48.684;9.028;2023-04-28T03:45:06;4.93;;;4.30;;
8413;SDS011;4244;48.684;9.028;2023-04-28T03:47:32;6.23;;;4.30;;
8413;SDS011;4244;48.684;9.028;2023-04-28T03:49:58;6.93;;;4.83;;
8413;SDS011;4244;48.684;9.028;2023-04-28T03:52:24;5.30;;;4.60;;
8413;SDS011;4244;48.684;9.028;2023-04-28T03:54:50;4.70;;;4.30;;
8413;SDS011;4244;48.684;9.028;2023-04-28T03:57:16;5.27;;;4.57;;
8413;SDS011;4244;48.684;9.028;2023-04-28T03:59:41;5.37;;;4.90;;
8413;SDS011;4244;48.684;9.028;2023-04-28T04:02:07;5.30;;;4.80;;
8413;SDS011;4244;48.684;9.028;2023-04-28T04:04:33;5.90;;;4.30;;
8413;SDS011;4244;48.684;9.028;2023-04-28T04:06:58;5.07;;;4.53;;
8413;SDS011;4244;48.684;9.028;2023-04-28T04:09:24;4.50;;;4.07;;
8413;SDS011;4244;48.684;9.028;2023-04-28T04:11:50;5.10;;;4.40;;
8413;SDS011;4244;48.684;9.028;2023-04-28T04:14:16;5.53;;;4.40;;
8413;SDS011;4244;48.684;9.028;2023-04-28T04:16:41;5.90;;;4.80;;
8413;SDS011;4244;48.684;9.028;2023-04-28T04:19:07;7.40;;;4.57;;
8413;SDS011;4244;48.684;9.028;2023-04-28T04:21:33;5.60;;;5.07;;
8413;SDS011;4244;48.684;9.028;2023-04-28T04:23:58;6.33;;;4.57;;
8413;SDS011;4244;48.684;9.028;2023-04-28T04:26:25;6.00;;;4.33;;
8413;SDS011;4244;48.684;9.028;2023-04-28T04:28:51;7.03;;;5.70;;
8413;SDS011;4244;48.684;9.028;2023-04-28T04:31:16;5.20;;;4.70;;
8413;SDS011;4244;48.684;9.028;2023-04-28T04:33:43;4.60;;;4.20;;
8413;SDS011;4244;48.684;9.028;2023-04-28T04:36:09;5.30;;;4.43;;
8413;SDS011;4244;48.684;9.028;2023-04-28T04:38:35;7.43;;;5.67;;
8413;SDS011;4244;48.684;9.028;2023-04-28T04:41:01;4.97;;;4.57;;
8413;SDS011;4244;48.684;9.028;2023-04-28T04:43:26;5.00;;;4.60;;
8413;SDS011;4244;48.684;9.028;2023-04-28T04:45:52;5.33;;;4.83;;
8413;SDS011;4244;48.684;9.028;2023-04-28T04:48:19;8.20;;;5.37;;
8413;SDS011;4244;48.684;9.028;2023-04-28T04:50:45;5.60;;;5.00;;
8413;SDS011;4244;48.684;9.028;2023-04-28T04:53:10;5.90;;;5.40;;
8413;SDS011;4244;48.684;9.028;2023-04-28T04:55:36;9.57;;;6.17;;
8413;SDS011;4244;48.684;9.028;2023-04-28T04:58:02;5.80;;;5.30;;
8413;SDS011;4244;48.684;9.028;2023-04-28T05:00:28;5.80;;;5.30;;
8413;SDS011;4244;48.684;9.028;2023-04-28T05:02:54;6.37;;;5.50;;
8413;SDS011;4244;48.684;9.028;2023-04-28T05:05:20;5.90;;;5.27;;
8413;SDS011;4244;48.684;9.028;2023-04-28T05:07:45;6.93;;;5.30;;
8413;SDS011;4244;48.684;9.028;2023-04-28T05:10:11;7.77;;;6.83;;
8413;SDS011;4244;48.684;9.028;2023-04-28T05:12:37;7.20;;;6.00;;
8413;SDS011;4244;48.684;9.028;2023-04-28T05:15:05;8.77;;;6.17;;
8413;SDS011;4244;48.684;9.028;2023-04-28T05:17:32;7.90;;;6.33;;
8413;SDS011;4244;48.684;9.028;2023-04-28T05:19:58;8.30;;;6.03;;
8413;SDS011;4244;48.684;9.028;2023-04-28T05:22:24;6.30;;;5.70;;
8413;SDS011;4244;48.684;9.028;2023-04-28T05:24:50;7.83;;;7.03;;
8413;SDS011;4244;48.684;9.028;2023-04-28T05:27:17;7.63;;;5.87;;
8413;SDS011;4244;48.684;9.028;2023-04-28T05:29:43;7.27;;;5.87;;
8413;SDS011;4244;48.684;9.028;2023-04-28T05:32:09;7.70;;;6.90;;
8413;SDS011;4244;48.684;9.028;2023-04-28T05:34:34;6.40;;;5.63;;
8413;SDS011;4244;48.684;9.028;2023-04-28T05:37:00;6.83;;;5.90;;
8413;SDS011;4244;48.684;9.028;2023-04-28T05:39:26;7.63;;;5.90;;
8413;SDS011;4244;48.684;9.028;2023-04-28T05:41:51;7.43;;;6.80;;
8413;SDS011;4244;48.684;9.028;2023-04-28T05:44:17;7.33;;;6.40;;
8413;SDS011;4244;48.684;9.028;2023-04-28T05:46:43;6.83;;;5.53;;
8413;SDS011;4244;48.684;9.028;2023-04-28T05:49:08;6.10;;;5.50;;
8413;SDS011;4244;48.684;9.028;2023-04-28T05:51:34;6.30;;;5.67;;
8413;SDS011;4244;48.684;9.028;2023-04-28T05:54:00;5.87;;;5.37;;
8413;SDS011;4244;48.684;9.028;2023-04-28T05:56:26;6.20;;;5.40;;
8413;SDS011;4244;48.684;9.028;2023-04-28T05:58:52;6.07;;;5.47;;
8413;SDS011;4244;48.684;9.028;2023-04-28T06:01:17;8.97;;;5.93;;
8413;SDS011;4244;48.684;9.028;2023-04-28T06:03:43;5.93;;;5.43;;
8413;SDS011;4244;48.684;9.028;2023-04-28T06:06:09;6.40;;;5.80;;
8413;SDS011;4244;48.684;9.028;2023-04-28T06:08:35;6.00;;;5.50;;
8413;SDS011;4244;48.684;9.028;2023-04-28T06:11:02;8.00;;;5.33;;
8413;SDS011;4244;48.684;9.028;2023-04-28T06:13:30;5.70;;;5.20;;
8413;SDS011;4244;48.684;9.028;2023-04-28T06:15:56;8.13;;;5.80;;
8413;SDS011;4244;48.684;9.028;2023-04-28T06:18:22;6.17;;;5.57;;
8413;SDS011;4244;48.684;9.028;2023-04-28T06:20:48;6.30;;;5.70;;
8413;SDS011;4244;48.684;9.028;2023-04-28T06:23:14;6.93;;;5.80;;
8413;SDS011;4244;48.684;9.028;2023-04-28T06:25:40;7.77;;;5.37;;
8413;SDS011;4244;48.684;9.028;2023-04-28T06:28:05;6.10;;;5.43;;
8413;SDS011;4244;48.684;9.028;2023-04-28T06:30:32;6.40;;;5.80;;
8413;SDS011;4244;48.684;9.028;2023-04-28T06:33:00;5.53;;;5.03;;
8413;SDS011;4244;48.684;9.028;2023-04-28T06:35:25;7.17;;;5.87;;
8413;SDS011;4244;48.684;9.028;2023-04-28T06:37:52;5.83;;;5.20;;
8413;SDS011;4244;48.684;9.028;2023-04-28T06:40:17;6.70;;;5.57;;
8413;SDS011;4244;48.684;9.028;2023-04-28T06:42:43;7.00;;;5.80;;
8413;SDS011;4244;48.684;9.028;2023-04-28T06:45:09;6.63;;;6.00;;
8413;SDS011;4244;48.684;9.028;2023-04-28T06:47:35;5.90;;;5.40;;
8413;SDS011;4244;48.684;9.028;2023-04-28T06:50:04;7.93;;;5.87;;
8413;SDS011;4244;48.684;9.028;2023-04-28T06:52:31;5.70;;;5.20;;
8413;SDS011;4244;48.684;9.028;2023-04-28T06:54:56;5.97;;;5.37;;
8413;SDS011;4244;48.684;9.028;2023-04-28T06:57:22;5.33;;;4.83;;
8413;SDS011;4244;48.684;9.028;2023-04-28T06:59:48;6.40;;;5.80;;
8413;SDS011;4244;48.684;9.028;2023-04-28T07:02:13;6.10;;;5.60;;
8413;SDS011;4244;48.684;9.028;2023-04-28T07:04:39;6.83;;;5.50;;
8413;SDS011;4244;48.684;9.028;2023-04-28T07:07:05;6.40;;;5.80;;
8413;SDS011;4244;48.684;9.028;2023-04-28T07:09:33;6.47;;;5.87;;
8413;SDS011;4244;48.684;9.028;2023-04-28T07:11:59;6.33;;;5.73;;
8413;SDS011;4244;48.684;9.028;2023-04-28T07:14:24;5.90;;;5.03;;
8413;SDS011;4244;48.684;9.028;2023-04-28T07:16:50;6.10;;;5.40;;
8413;SDS011;4244;48.684;9.028;2023-04-28T07:19:16;5.60;;;5.00;;
8413;SDS011;4244;48.684;9.028;2023-04-28T07:21:41;7.50;;;5.43;;
8413;SDS011;4244;48.684;9.028;2023-04-28T07:24:07;5.90;;;5.40;;
8413;SDS011;4244;48.684;9.028;2023-04-28T07:26:32;8.23;;;5.10;;
8413;SDS011;4244;48.684;9.028;2023-04-28T07:28:58;6.57;;;5.60;;
8413;SDS011;4244;48.684;9.028;2023-04-28T07:31:24;5.93;;;5.30;;
8413;SDS011;4244;48.684;9.028;2023-04-28T07:33:50;5.83;;;5.33;;
8413;SDS011;4244;48.684;9.028;2023-04-28T07:36:15;6.07;;;5.47;;
8413;SDS011;4244;48.684;9.028;2023-04-28T07:38:41;6.70;;;6.10;;
8413;SDS011;4244;48.684;9.028;2023-04-28T07:41:07;6.00;;;5.40;;
8413;SDS011;4244;48.684;9.028;2023-04-28T07:43:33;6.47;;;5.87;;
8413;SDS011;4244;48.684;9.028;2023-04-28T07:45:58;6.83;;;6.20;;
8413;SDS011;4244;48.684;9.028;2023-04-28T07:48:24;8.30;;;6.40;;
8413;SDS011;4244;48.684;9.028;2023-04-28T07:50:51;5.67;;;5.17;;
8413;SDS011;4244;48.684;9.028;2023-04-28T07:53:17;8.97;;;5.83;;
8413;SDS011;4244;48.684;9.028;2023-04-28T07:55:43;6.47;;;5.87;;
8413;SDS011;4244;48.684;9.028;2023-04-28T07:58:10;6.60;;;5.90;;
8413;SDS011;4244;48.684;9.028;2023-04-28T08:00:36;6.07;;;5.57;;
8413;SDS011;4244;48.684;9.028;2023-04-28T08:03:02;6.47;;;5.77;;
8413;SDS011;4244;48.684;9.028;2023-04-28T08:05:28;6.13;;;5.63;;
8413;SDS011;4244;48.684;9.028;2023-04-28T08:07:53;8.80;;;6.33;;
8413;SDS011;4244;48.684;9.028;2023-04-28T08:10:19;6.70;;;6.10;;
8413;SDS011;4244;48.684;9.028;2023-04-28T08:12:45;5.97;;;5.43;;
8413;SDS011;4244;48.684;9.028;2023-04-28T08:15:11;6.37;;;5.50;;
8413;SDS011;4244;48.684;9.028;2023-04-28T08:17:37;6.10;;;5.30;;
8413;SDS011;4244;48.684;9.028;2023-04-28T08:20:03;6.20;;;5.57;;
8413;SDS011;4244;48.684;9.028;2023-04-28T08:22:30;5.40;;;5.00;;
8413;SDS011;4244;48.684;9.028;2023-04-28T08:24:56;7.10;;;5.73;;
8413;SDS011;4244;48.684;9.028;2023-04-28T08:27:21;6.60;;;5.63;;
8413;SDS011;4244;48.684;9.028;2023-04-28T08:29:48;5.70;;;5.20;;
8413;SDS011;4244;48.684;9.028;2023-04-28T08:32:14;7.63;;;5.97;;
8413;SDS011;4244;48.684;9.028;2023-04-28T08:34:40;6.60;;;5.90;;
8413;SDS011;4244;48.684;9.028;2023-04-28T08:37:06;7.03;;;5.60;;
8413;SDS011;4244;48.684;9.028;2023-04-28T08:39:31;5.70;;;5.20;;
8413;SDS011;4244;48.684;9.028;2023-04-28T08:41:59;6.07;;;5.53;;
8413;SDS011;4244;48.684;9.028;2023-04-28T08:44:28;5.67;;;5.17;;
8413;SDS011;4244;48.684;9.028;2023-04-28T08:47:04;5.30;;;4.90;;
8413;SDS011;4244;48.684;9.028;2023-04-28T08:49:36;5.23;;;4.83;;
8413;SDS011;4244;48.684;9.028;2023-04-28T08:52:03;5.53;;;5.03;;
8413;SDS011;4244;48.684;9.028;2023-04-28T08:54:35;6.00;;;4.90;;
8413;SDS011;4244;48.684;9.028;2023-04-28T08:57:02;5.20;;;4.80;;
8413;SDS011;4244;48.684;9.028;2023-04-28T08:59:29;5.63;;;4.87;;
8413;SDS011;4244;48.684;9.028;2023-04-28T09:01:55;4.93;;;4.43;;
8413;SDS011;4244;48.684;9.028;2023-04-28T09:04:21;5.73;;;4.87;;
8413;SDS011;4244;48.684;9.028;2023-04-28T09:06:47;5.50;;;4.50;;
8413;SDS011;4244;48.684;9.028;2023-04-28T09:11:52;4.37;;;3.97;;
8413;SDS011;4244;48.684;9.028;2023-04-28T09:14:19;3.70;;;3.40;;
8413;SDS011;4244;48.684;9.028;2023-04-28T09:16:45;5.03;;;4.20;;
8413;SDS011;4244;48.684;9.028;2023-04-28T09:19:11;2.80;;;2.60;;
8413;SDS011;4244;48.684;9.028;2023-04-28T09:21:46;4.10;;;3.70;;
8413;SDS011;4244;48.684;9.028;2023-04-28T09:24:39;4.97;;;3.00;;
8413;SDS011;4244;48.684;9.028;2023-04-28T09:27:07;3.50;;;2.63;;
8413;SDS011;4244;48.684;9.028;2023-04-28T09:29:35;3.33;;;3.03;;
8413;SDS011;4244;48.684;9.028;2023-04-28T09:32:18;4.67;;;2.93;;
8413;SDS011;4244;48.684;9.028;2023-04-28T09:34:48;3.10;;;2.53;;
8413;SDS011;4244;48.684;9.028;2023-04-28T09:37:16;3.47;;;2.80;;
8413;SDS011;4244;48.684;9.028;2023-04-28T09:39:44;3.87;;;3.37;;
8413;SDS011;4244;48.684;9.028;2023-04-28T09:42:12;3.53;;;3.23;;
8413;SDS011;4244;48.684;9.028;2023-04-28T09:45:08;3.90;;;3.33;;
8413;SDS011;4244;48.684;9.028;2023-04-28T09:47:35;8.50;;;3.00;;
8413;SDS011;4244;48.684;9.028;2023-04-28T09:50:08;3.53;;;2.70;;
8413;SDS011;4244;48.684;9.028;2023-04-28T09:52:38;2.60;;;2.40;;
8413;SDS011;4244;48.684;9.028;2023-04-28T09:55:06;3.53;;;3.23;;
8413;SDS011;4244;48.684;9.028;2023-04-28T09:57:36;2.87;;;2.53;;
8413;SDS011;4244;48.684;9.028;2023-04-28T10:00:03;2.50;;;2.20;;
8413;SDS011;4244;48.684;9.028;2023-04-28T10:02:32;3.20;;;2.43;;
8413;SDS011;4244;48.684;9.028;2023-04-28T10:04:59;3.77;;;2.10;;
8413;SDS011;4244;48.684;9.028;2023-04-28T10:07:25;3.07;;;2.43;;
8413;SDS011;4244;48.684;9.028;2023-04-28T10:09:51;2.60;;;1.80;;
8413;SDS011;4244;48.684;9.028;2023-04-28T10:12:20;2.30;;;1.70;;
8413;SDS011;4244;48.684;9.028;2023-04-28T10:14:51;1.60;;;1.50;;
8413;SDS011;4244;48.684;9.028;2023-04-28T10:17:22;2.03;;;1.23;;
8413;SDS011;4244;48.684;9.028;2023-04-28T10:19:53;2.67;;;1.10;;
8413;SDS011;4244;48.684;9.028;2023-04-28T10:27:42;1.40;;;0.90;;
8413;SDS011;4244;48.684;9.028;2023-04-28T10:32:41;1.10;;;0.77;;
8413;SDS011;4244;48.684;9.028;2023-04-28T10:40:39;1.37;;;0.90;;
8413;SDS011;4244;48.684;9.028;2023-04-28T10:43:07;1.70;;;0.87;;
8413;SDS011;4244;48.684;9.028;2023-04-28T10:49:02;1.30;;;1.03;;
8413;SDS011;4244;48.684;9.028;2023-04-28T10:56:18;2.47;;;1.10;;
8413;SDS011;4244;48.684;9.028;2023-04-28T10:58:49;3.40;;;1.20;;
8413;SDS011;4244;48.684;9.028;2023-04-28T11:04:02;1.50;;;1.00;;
8413;SDS011;4244;48.684;9.028;2023-04-28T11:06:41;1.10;;;0.90;;
8413;SDS011;4244;48.684;9.028;2023-04-28T11:11:38;1.57;;;1.10;;
8413;SDS011;4244;48.684;9.028;2023-04-28T11:16:57;2.07;;;1.10;;
8413;SDS011;4244;48.684;9.028;2023-04-28T11:19:28;1.23;;;0.70;;
8413;SDS011;4244;48.684;9.028;2023-04-28T11:21:59;1.90;;;1.03;;
8413;SDS011;4244;48.684;9.028;2023-04-28T11:24:28;1.20;;;0.70;;
8413;SDS011;4244;48.684;9.028;2023-04-28T11:26:55;1.83;;;0.87;;
8413;SDS011;4244;48.684;9.028;2023-04-28T11:31:57;1.77;;;0.70;;
8413;SDS011;4244;48.684;9.028;2023-04-28T11:34:23;2.07;;;0.60;;
8413;SDS011;4244;48.684;9.028;2023-04-28T11:36:49;1.03;;;0.70;;
8413;SDS011;4244;48.684;9.028;2023-04-28T11:39:15;1.00;;;0.57;;
8413;SDS011;4244;48.684;9.028;2023-04-28T11:41:42;1.00;;;0.67;;
8413;SDS011;4244;48.684;9.028;2023-04-28T11:44:12;2.30;;;0.80;;
8413;SDS011;4244;48.684;9.028;2023-04-28T11:49:16;0.80;;;0.40;;
8413;SDS011;4244;48.684;9.028;2023-04-28T11:51:42;1.10;;;0.70;;
8413;SDS011;4244;48.684;9.028;2023-04-28T11:54:10;1.90;;;0.93;;
8413;SDS011;4244;48.684;9.028;2023-04-28T11:56:39;0.90;;;0.57;;
8413;SDS011;4244;48.684;9.028;2023-04-28T11:59:06;1.10;;;0.70;;
8413;SDS011;4244;48.684;9.028;2023-04-28T12:01:34;1.40;;;0.53;;
8413;SDS011;4244;48.684;9.028;2023-04-28T12:04:08;1.13;;;0.60;;
8413;SDS011;4244;48.684;9.028;2023-04-28T12:06:34;1.47;;;0.67;;
8413;SDS011;4244;48.684;9.028;2023-04-28T12:09:00;1.00;;;0.57;;
8413;SDS011;4244;48.684;9.028;2023-04-28T12:11:29;1.20;;;0.70;;
8413;SDS011;4244;48.684;9.028;2023-04-28T12:14:02;1.20;;;0.70;;
8413;SDS011;4244;48.684;9.028;2023-04-28T12:16:38;1.87;;;0.67;;
8413;SDS011;4244;48.684;9.028;2023-04-28T12:19:07;1.50;;;0.80;;
8413;SDS011;4244;48.684;9.028;2023-04-28T12:21:35;1.30;;;0.70;;
8413;SDS011;4244;48.684;9.028;2023-04-28T12:24:19;1.37;;;0.80;;
8413;SDS011;4244;48.684;9.028;2023-04-28T12:26:46;1.10;;;0.80;;
8413;SDS011;4244;48.684;9.028;2023-04-28T12:32:06;1.00;;;0.60;;
8413;SDS011;4244;48.684;9.028;2023-04-28T12:34:33;1.00;;;0.60;;
8413;SDS011;4244;48.684;9.028;2023-04-28T12:37:00;1.20;;;0.80;;
8413;SDS011;4244;48.684;9.028;2023-04-28T12:39:26;2.10;;;0.60;;
8413;SDS011;4244;48.684;9.028;2023-04-28T12:41:52;3.07;;;0.80;;
8413;SDS011;4244;48.684;9.028;2023-04-28T12:44:23;2.13;;;0.70;;
8413;SDS011;4244;48.684;9.028;2023-04-28T12:46:49;1.27;;;0.73;;
8413;SDS011;4244;48.684;9.028;2023-04-28T12:49:15;1.20;;;0.70;;
8413;SDS011;4244;48.684;9.028;2023-04-28T12:51:41;1.57;;;0.70;;
8413;SDS011;4244;48.684;9.028;2023-04-28T12:54:07;1.83;;;0.70;;
8413;SDS011;4244;48.684;9.028;2023-04-28T12:56:33;1.20;;;0.70;;
8413;SDS011;4244;48.684;9.028;2023-04-28T12:58:59;1.97;;;0.77;;
8413;SDS011;4244;48.684;9.028;2023-04-28T13:01:27;1.23;;;0.70;;
8413;SDS011;4244;48.684;9.028;2023-04-28T13:03:53;2.33;;;0.83;;
8413;SDS011;4244;48.684;9.028;2023-04-28T13:06:19;1.20;;;0.60;;
8413;SDS011;4244;48.684;9.028;2023-04-28T13:08:45;1.20;;;0.83;;
8413;SDS011;4244;48.684;9.028;2023-04-28T13:11:10;1.30;;;0.60;;
8413;SDS011;4244;48.684;9.028;2023-04-28T13:13:36;2.13;;;0.87;;
8413;SDS011;4244;48.684;9.028;2023-04-28T13:16:02;1.27;;;0.80;;
8413;SDS011;4244;48.684;9.028;2023-04-28T13:18:29;1.13;;;0.70;;
8413;SDS011;4244;48.684;9.028;2023-04-28T13:20:57;1.60;;;0.70;;
8413;SDS011;4244;48.684;9.028;2023-04-28T13:23:23;1.00;;;0.70;;
8413;SDS011;4244;48.684;9.028;2023-04-28T13:25:49;1.63;;;0.73;;
8413;SDS011;4244;48.684;9.028;2023-04-28T13:28:15;1.00;;;0.60;;
8413;SDS011;4244;48.684;9.028;2023-04-28T13:30:41;1.37;;;0.90;;
8413;SDS011;4244;48.684;9.028;2023-04-28T13:33:06;1.07;;;0.70;;
8413;SDS011;4244;48.684;9.028;2023-04-28T13:35:32;1.13;;;0.80;;
8413;SDS011;4244;48.684;9.028;2023-04-28T13:37:58;1.10;;;0.70;;
8413;SDS011;4244;48.684;9.028;2023-04-28T13:40:27;1.07;;;0.90;;
8413;SDS011;4244;48.684;9.028;2023-04-28T13:42:53;0.90;;;0.50;;
8413;SDS011;4244;48.684;9.028;2023-04-28T13:45:19;1.30;;;0.50;;
8413;SDS011;4244;48.684;9.028;2023-04-28T13:47:45;0.90;;;0.50;;
8413;SDS011;4244;48.684;9.028;2023-04-28T13:50:12;0.90;;;0.53;;
8413;SDS011;4244;48.684;9.028;2023-04-28T13:52:38;1.20;;;0.70;;
8413;SDS011;4244;48.684;9.028;2023-04-28T13:55:03;1.00;;;0.60;;
8413;SDS011;4244;48.684;9.028;2023-04-28T13:57:29;1.30;;;0.80;;
8413;SDS011;4244;48.684;9.028;2023-04-28T13:59:55;1.17;;;0.67;;
8413;SDS011;4244;48.684;9.028;2023-04-28T14:02:21;1.33;;;0.77;;
8413;SDS011;4244;48.684;9.028;2023-04-28T14:04:47;1.07;;;0.70;;
8413;SDS011;4244;48.684;9.028;2023-04-28T14:07:14;0.93;;;0.60;;
8413;SDS011;4244;48.684;9.028;2023-04-28T14:09:40;2.17;;;0.80;;
8413;SDS011;4244;48.684;9.028;2023-04-28T14:12:06;1.53;;;0.80;;
8413;SDS011;4244;48.684;9.028;2023-04-28T14:14:32;1.00;;;0.60;;
8413;SDS011;4244;48.684;9.028;2023-04-28T14:16:58;1.17;;;0.90;;
8413;SDS011;4244;48.684;9.028;2023-04-28T14:19:24;1.30;;;0.70;;
8413;SDS011;4244;48.684;9.028;2023-04-28T14:21:51;1.87;;;0.80;;
8413;SDS011;4244;48.684;9.028;2023-04-28T14:24:17;4.10;;;0.87;;
8413;SDS011;4244;48.684;9.028;2023-04-28T14:26:44;2.40;;;0.80;;
8413;SDS011;4244;48.684;9.028;2023-04-28T14:29:10;1.27;;;0.70;;
8413;SDS011;4244;48.684;9.028;2023-04-28T14:31:36;1.57;;;0.70;;
8413;SDS011;4244;48.684;9.028;2023-04-28T14:34:02;1.30;;;0.80;;
8413;SDS011;4244;48.684;9.028;2023-04-28T14:36:29;1.03;;;0.53;;
8413;SDS011;4244;48.684;9.028;2023-04-28T14:38:57;1.47;;;0.70;;
8413;SDS011;4244;48.684;9.028;2023-04-28T14:41:23;1.47;;;0.90;;
8413;SDS011;4244;48.684;9.028;2023-04-28T14:43:49;0.90;;;0.60;;
8413;SDS011;4244;48.684;9.028;2023-04-28T14:46:15;1.00;;;0.50;;
8413;SDS011;4244;48.684;9.028;2023-04-28T14:48:43;3.40;;;0.70;;
8413;SDS011;4244;48.684;9.028;2023-04-28T14:51:09;0.97;;;0.50;;
8413;SDS011;4244;48.684;9.028;2023-04-28T14:53:34;1.03;;;0.60;;
8413;SDS011;4244;48.684;9.028;2023-04-28T14:56:00;1.10;;;0.60;;
8413;SDS011;4244;48.684;9.028;2023-04-28T14:58:29;1.20;;;0.87;;
8413;SDS011;4244;48.684;9.028;2023-04-28T15:00:55;1.03;;;0.60;;
8413;SDS011;4244;48.684;9.028;2023-04-28T15:03:20;1.07;;;0.57;;
8413;SDS011;4244;48.684;9.028;2023-04-28T15:05:46;1.83;;;0.70;;
8413;SDS011;4244;48.684;9.028;2023-04-28T15:08:12;1.70;;;0.67;;
8413;SDS011;4244;48.684;9.028;2023-04-28T15:10:38;0.90;;;0.57;;
8413;SDS011;4244;48.684;9.028;2023-04-28T15:13:04;1.00;;;0.50;;
8413;SDS011;4244;48.684;9.028;2023-04-28T15:15:30;1.47;;;0.87;;
8413;SDS011;4244;48.684;9.028;2023-04-28T15:17:56;1.10;;;0.60;;
8413;SDS011;4244;48.684;9.028;2023-04-28T15:20:25;1.83;;;1.40;;
8413;SDS011;4244;48.684;9.028;2023-04-28T15:22:55;1.63;;;1.10;;
8413;SDS011;4244;48.684;9.028;2023-04-28T15:25:21;1.83;;;0.50;;
8413;SDS011;4244;48.684;9.028;2023-04-28T15:27:47;1.00;;;0.50;;
8413;SDS011;4244;48.684;9.028;2023-04-28T15:30:14;1.00;;;0.70;;
8413;SDS011;4244;48.684;9.028;2023-04-28T15:32:43;1.20;;;0.70;;
8413;SDS011;4244;48.684;9.028;2023-04-28T15:35:09;1.07;;;0.63;;
8413;SDS011;4244;48.684;9.028;2023-04-28T15:37:41;2.40;;;0.70;;
8413;SDS011;4244;48.684;9.028;2023-04-28T15:40:15;1.10;;;0.67;;
8413;SDS011;4244;48.684;9.028;2023-04-28T15:42:41;1.13;;;0.77;;
8413;SDS011;4244;48.684;9.028;2023-04-28T15:45:12;1.40;;;0.97;;
8413;SDS011;4244;48.684;9.028;2023-04-28T15:47:42;2.07;;;0.90;;
8413;SDS011;4244;48.684;9.028;2023-04-28T15:50:09;1.37;;;0.83;;
8413;SDS011;4244;48.684;9.028;2023-04-28T15:52:39;2.13;;;1.00;;